Time;durP1;ratioP1;P1;durP2;ratioP2;P2;SDS_P1;SDS_P2;PMS_P1;PMS_P2;Temp;Humidity;BMP_temperature;BMP_pressure;BME280_temperature;BME280_humidity;BME280_pressure;Samples;Min_cycle;Max_cycle;Signal;HPM_P1;HPM_P2
2023/02/09 00:01:15;;;;;;;34.90;14.27;;;;;;;;;;4972906;28;20085;-61
2023/02/09 00:03:42;;;;;;;38.78;14.35;;;;;;;;;;4971677;28;20085;-62
2023/02/09 00:06:10;;;;;;;36.20;14.70;;;;;;;;;;4971530;28;20030;-62
2023/02/09 00:08:36;;;;;;;38.83;14.10;;;;;;;;;;4971359;28;20125;-63
2023/02/09 00:14:15;;;;;;;39.00;14.55;;;;;;;;;;4971768;28;20033;-63
2023/02/09 00:16:41;;;;;;;32.65;14.27;;;;;;;;;;4975880;28;20040;-63
2023/02/09 00:19:06;;;;;;;42.08;16.02;;;;;;;;;;4972395;28;20662;-63
2023/02/09 00:21:32;;;;;;;36.95;13.98;;;;;;;;;;4972021;28;20065;-63
2023/02/09 00:23:58;;;;;;;42.67;15.95;;;;;;;;;;4971531;28;20076;-63
2023/02/09 00:26:24;;;;;;;41.65;14.57;;;;;;;;;;4970263;28;20035;-61
2023/02/09 00:28:49;;;;;;;39.50;15.30;;;;;;;;;;4972411;28;20034;-63
2023/02/09 00:31:14;;;;;;;38.00;14.82;;;;;;;;;;4971859;28;20042;-63
2023/02/09 00:33:40;;;;;;;44.03;14.98;;;;;;;;;;4970078;28;20026;-63
2023/02/09 00:36:07;;;;;;;39.47;14.85;;;;;;;;;;4972517;28;20066;-63
2023/02/09 00:38:33;;;;;;;33.63;15.25;;;;;;;;;;4971919;28;20085;-63
2023/02/09 00:40:58;;;;;;;36.78;14.80;;;;;;;;;;4972057;28;20030;-63
2023/02/09 00:43:24;;;;;;;37.90;14.93;;;;;;;;;;4970775;28;20030;-62
2023/02/09 00:45:49;;;;;;;35.95;14.95;;;;;;;;;;4972329;28;20027;-63
2023/02/09 00:48:15;;;;;;;35.05;14.25;;;;;;;;;;4971914;28;20027;-63
2023/02/09 00:50:40;;;;;;;37.30;15.45;;;;;;;;;;4971844;28;20030;-63
2023/02/09 00:53:05;;;;;;;33.80;13.68;;;;;;;;;;4971750;28;20026;-62
2023/02/09 00:55:31;;;;;;;34.13;13.65;;;;;;;;;;4971257;28;20034;-61
2023/02/09 00:57:56;;;;;;;40.60;14.50;;;;;;;;;;4971749;28;20401;-63
2023/02/09 01:00:21;;;;;;;36.03;14.70;;;;;;;;;;4973233;28;20123;-63
2023/02/09 01:02:47;;;;;;;39.63;15.77;;;;;;;;;;4971593;28;20023;-63
2023/02/09 01:05:12;;;;;;;36.25;15.15;;;;;;;;;;4971082;28;20055;-62
2023/02/09 01:07:38;;;;;;;38.88;15.30;;;;;;;;;;4971111;28;20105;-63
2023/02/09 01:10:04;;;;;;;37.78;15.52;;;;;;;;;;4971595;28;20035;-63
2023/02/09 01:12:30;;;;;;;35.92;14.27;;;;;;;;;;4970937;28;20022;-61
2023/02/09 01:14:55;;;;;;;33.97;14.02;;;;;;;;;;4970774;28;20125;-61
2023/02/09 01:17:21;;;;;;;39.65;15.13;;;;;;;;;;4970146;28;20054;-61
2023/02/09 01:19:51;;;;;;;35.70;15.85;;;;;;;;;;4971045;28;20038;-63
2023/02/09 01:22:16;;;;;;;35.63;14.27;;;;;;;;;;4969354;28;20027;-62
2023/02/09 01:24:41;;;;;;;34.78;14.75;;;;;;;;;;4970738;28;20484;-63
2023/02/09 01:27:07;;;;;;;39.20;16.30;;;;;;;;;;4970678;28;20067;-62
2023/02/09 01:29:32;;;;;;;37.22;14.68;;;;;;;;;;4971177;28;20109;-63
2023/02/09 01:31:57;;;;;;;40.08;14.70;;;;;;;;;;4971437;28;20089;-63
2023/02/09 01:34:23;;;;;;;39.08;16.42;;;;;;;;;;4976911;28;20038;-62
2023/02/09 01:36:48;;;;;;;40.30;15.23;;;;;;;;;;4971310;28;20027;-63
2023/02/09 01:39:14;;;;;;;36.50;15.20;;;;;;;;;;4971259;28;20030;-63
2023/02/09 01:41:40;;;;;;;42.35;15.90;;;;;;;;;;4971280;28;20081;-63
2023/02/09 01:44:25;;;;;;;43.15;17.23;;;;;;;;;;4969288;28;20513;-62
2023/02/09 01:46:51;;;;;;;38.90;15.18;;;;;;;;;;4970540;28;20026;-62
2023/02/09 01:49:20;;;;;;;34.83;15.35;;;;;;;;;;4970745;28;20081;-62
2023/02/09 01:52:06;;;;;;;44.07;16.90;;;;;;;;;;4971012;28;20551;-62
2023/02/09 01:54:40;;;;;;;35.72;15.05;;;;;;;;;;4970315;28;20034;-62
2023/02/09 01:57:12;;;;;;;42.65;15.63;;;;;;;;;;4973349;28;20027;-62
2023/02/09 01:59:40;;;;;;;40.65;16.55;;;;;;;;;;4971015;28;20109;-62
2023/02/09 02:02:07;;;;;;;40.88;16.25;;;;;;;;;;4966353;28;20034;-62
2023/02/09 02:04:33;;;;;;;45.05;17.70;;;;;;;;;;4971960;28;20110;-62
2023/02/09 02:07:09;;;;;;;42.13;16.15;;;;;;;;;;4973820;28;20030;-63
2023/02/09 02:09:34;;;;;;;48.28;16.95;;;;;;;;;;4970540;28;20031;-62
2023/02/09 02:12:00;;;;;;;38.10;16.17;;;;;;;;;;4971050;28;20101;-62
2023/02/09 02:14:32;;;;;;;41.45;16.92;;;;;;;;;;4969345;28;20551;-62
2023/02/09 02:17:09;;;;;;;41.20;16.38;;;;;;;;;;4970313;28;20023;-63
2023/02/09 02:20:03;;;;;;;40.33;16.35;;;;;;;;;;4975576;28;20097;-62
2023/02/09 02:22:35;;;;;;;40.25;15.68;;;;;;;;;;4970062;28;20023;-62
2023/02/09 02:25:18;;;;;;;39.28;16.48;;;;;;;;;;4969664;28;20523;-62
2023/02/09 02:28:26;;;;;;;40.65;16.80;;;;;;;;;;4952867;28;20027;-62
2023/02/09 02:31:30;;;;;;;40.13;16.90;;;;;;;;;;4954190;28;20509;-63
2023/02/09 02:34:07;;;;;;;43.65;17.25;;;;;;;;;;4945381;28;20047;-63
2023/02/09 02:36:54;;;;;;;42.53;17.02;;;;;;;;;;4970168;28;20023;-63
2023/02/09 02:39:42;;;;;;;41.85;16.80;;;;;;;;;;4970722;28;20683;-62
2023/02/09 02:45:10;;;;;;;38.83;17.02;;;;;;;;;;4970346;28;20081;-62
2023/02/09 02:47:39;;;;;;;46.63;17.33;;;;;;;;;;4969471;28;20043;-62
2023/02/09 02:50:13;;;;;;;43.63;16.38;;;;;;;;;;4966945;28;20030;-61
2023/02/09 02:52:41;;;;;;;41.10;16.83;;;;;;;;;;4968962;28;20480;-63
2023/02/09 02:55:13;;;;;;;40.90;16.52;;;;;;;;;;4965842;28;20038;-63
2023/02/09 02:57:44;;;;;;;46.58;17.48;;;;;;;;;;4976261;28;20030;-63
2023/02/09 03:00:14;;;;;;;43.70;18.27;;;;;;;;;;4973886;28;20046;-63
2023/02/09 03:02:44;;;;;;;39.67;17.75;;;;;;;;;;4973538;28;20058;-63
2023/02/09 03:05:10;;;;;;;45.55;18.50;;;;;;;;;;4978810;28;20023;-63
2023/02/09 03:07:36;;;;;;;41.83;17.67;;;;;;;;;;4973911;28;20037;-61
2023/02/09 03:10:01;;;;;;;46.08;17.67;;;;;;;;;;4973922;28;20034;-62
2023/02/09 03:13:06;;;;;;;42.58;17.25;;;;;;;;;;4973304;28;20019;-62
2023/02/09 03:15:52;;;;;;;37.22;15.45;;;;;;;;;;4964897;28;20069;-62
2023/02/09 03:18:20;;;;;;;42.80;17.90;;;;;;;;;;4963258;28;20023;-62
2023/02/09 03:20:57;;;;;;;41.13;17.95;;;;;;;;;;4955988;28;20130;-63
2023/02/09 03:23:32;;;;;;;45.88;17.50;;;;;;;;;;4972644;28;20034;-62
2023/02/09 03:26:06;;;;;;;36.83;16.65;;;;;;;;;;4973355;28;20428;-63
2023/02/09 03:28:35;;;;;;;52.83;18.42;;;;;;;;;;4972290;28;20027;-62
2023/02/09 03:31:02;;;;;;;48.33;18.35;;;;;;;;;;4973086;28;20022;-62
2023/02/09 03:33:30;;;;;;;44.40;17.17;;;;;;;;;;4972233;28;20781;-63
2023/02/09 03:35:59;;;;;;;43.53;17.48;;;;;;;;;;4956074;28;20065;-62
2023/02/09 03:38:26;;;;;;;44.58;19.00;;;;;;;;;;4973147;28;20152;-63
2023/02/09 03:40:53;;;;;;;44.05;17.65;;;;;;;;;;4972968;28;20035;-63
2023/02/09 03:43:18;;;;;;;41.97;18.33;;;;;;;;;;4971929;28;20023;-62
2023/02/09 03:45:44;;;;;;;43.10;17.83;;;;;;;;;;4973275;28;20030;-62
2023/02/09 03:48:09;;;;;;;41.05;17.10;;;;;;;;;;4973783;28;20136;-62
2023/02/09 03:50:35;;;;;;;45.25;17.73;;;;;;;;;;4972840;28;20031;-63
2023/02/09 03:53:05;;;;;;;40.63;17.33;;;;;;;;;;4972770;28;20507;-62
2023/02/09 03:55:30;;;;;;;47.03;19.08;;;;;;;;;;4970577;28;20058;-62
2023/02/09 03:57:55;;;;;;;41.65;16.15;;;;;;;;;;4973096;28;20049;-62
2023/02/09 04:00:21;;;;;;;42.95;17.45;;;;;;;;;;4972319;28;20149;-62
2023/02/09 04:02:46;;;;;;;43.50;16.08;;;;;;;;;;4968340;28;20033;-63
2023/02/09 04:05:12;;;;;;;42.13;17.88;;;;;;;;;;4972114;28;20488;-62
2023/02/09 04:07:37;;;;;;;42.88;17.17;;;;;;;;;;4955734;28;20472;-62
2023/02/09 04:10:04;;;;;;;44.80;18.15;;;;;;;;;;4973223;28;20023;-62
2023/02/09 04:12:29;;;;;;;45.42;18.02;;;;;;;;;;4972185;28;20026;-62
2023/02/09 04:14:55;;;;;;;42.20;17.00;;;;;;;;;;4974643;28;20023;-62
2023/02/09 04:17:20;;;;;;;45.03;17.00;;;;;;;;;;4955320;28;20031;-62
2023/02/09 04:19:46;;;;;;;51.75;20.50;;;;;;;;;;4972894;28;20030;-62
2023/02/09 04:22:11;;;;;;;45.08;18.58;;;;;;;;;;4968098;28;20031;-61
2023/02/09 04:24:36;;;;;;;44.25;19.08;;;;;;;;;;4973160;28;20133;-62
2023/02/09 04:27:02;;;;;;;42.95;17.80;;;;;;;;;;4971679;28;20038;-61
2023/02/09 04:29:27;;;;;;;42.10;17.83;;;;;;;;;;4973419;28;20029;-62
2023/02/09 04:31:52;;;;;;;45.20;17.23;;;;;;;;;;4969516;28;20102;-62
2023/02/09 04:34:20;;;;;;;36.63;15.85;;;;;;;;;;4968286;28;20127;-63
2023/02/09 04:36:45;;;;;;;46.03;17.92;;;;;;;;;;4971619;28;20034;-62
2023/02/09 04:39:11;;;;;;;37.55;16.67;;;;;;;;;;4972213;28;20023;-61
2023/02/09 04:41:36;;;;;;;40.38;17.20;;;;;;;;;;4973589;28;20046;-61
2023/02/09 04:44:02;;;;;;;43.08;19.67;;;;;;;;;;4971124;28;20027;-62
2023/02/09 04:46:27;;;;;;;43.80;18.73;;;;;;;;;;4972013;28;20026;-62
2023/02/09 04:48:52;;;;;;;38.72;18.60;;;;;;;;;;4972161;28;20489;-62
2023/02/09 04:51:18;;;;;;;47.33;18.50;;;;;;;;;;4971978;28;20027;-61
2023/02/09 04:53:43;;;;;;;43.92;19.05;;;;;;;;;;4971807;28;20077;-61
2023/02/09 04:56:13;;;;;;;42.78;17.08;;;;;;;;;;4973976;28;20630;-62
2023/02/09 05:01:23;;;;;;;44.72;17.25;;;;;;;;;;4969384;28;20053;-63
2023/02/09 05:03:49;;;;;;;42.38;17.10;;;;;;;;;;4970617;28;20515;-62
2023/02/09 05:06:15;;;;;;;42.33;17.67;;;;;;;;;;4970781;28;20074;-62
2023/02/09 05:08:40;;;;;;;41.70;18.80;;;;;;;;;;4971967;28;20029;-62
2023/02/09 05:11:05;;;;;;;102.85;34.45;;;;;;;;;;4971463;28;20054;-62
2023/02/09 05:13:31;;;;;;;95.32;32.70;;;;;;;;;;4970515;28;20114;-62
2023/02/09 05:15:56;;;;;;;55.95;22.15;;;;;;;;;;4971637;28;20029;-62
2023/02/09 05:18:23;;;;;;;48.85;20.70;;;;;;;;;;4954877;28;20034;-62
2023/02/09 05:20:49;;;;;;;48.05;20.73;;;;;;;;;;4971004;28;20082;-62
2023/02/09 05:23:15;;;;;;;56.33;22.58;;;;;;;;;;4968617;28;20038;-62
2023/02/09 05:25:40;;;;;;;49.30;20.70;;;;;;;;;;4973053;28;20030;-60
2023/02/09 05:28:06;;;;;;;52.47;21.27;;;;;;;;;;4971236;28;20655;-61
2023/02/09 05:30:31;;;;;;;46.42;20.30;;;;;;;;;;4970791;28;20022;-61
2023/02/09 05:32:57;;;;;;;51.38;20.77;;;;;;;;;;4976333;28;20029;-61
2023/02/09 05:35:23;;;;;;;48.72;20.10;;;;;;;;;;4970674;28;20625;-61
2023/02/09 05:37:48;;;;;;;52.05;19.92;;;;;;;;;;4970393;28;20074;-61
2023/02/09 05:40:14;;;;;;;54.53;22.63;;;;;;;;;;4970698;28;20031;-61
2023/02/09 05:42:40;;;;;;;53.40;21.27;;;;;;;;;;4965901;28;20484;-61
2023/02/09 05:45:06;;;;;;;52.65;19.95;;;;;;;;;;4969249;28;20038;-61
2023/02/09 05:47:32;;;;;;;47.40;19.35;;;;;;;;;;4971797;28;20484;-61
2023/02/09 05:49:57;;;;;;;46.30;19.30;;;;;;;;;;4971271;28;20035;-61
2023/02/09 05:52:23;;;;;;;56.58;23.45;;;;;;;;;;4970777;28;20077;-61
2023/02/09 05:54:48;;;;;;;64.38;26.88;;;;;;;;;;4970447;28;20030;-61
2023/02/09 05:57:15;;;;;;;69.05;27.73;;;;;;;;;;4972702;28;20027;-61
2023/02/09 05:59:41;;;;;;;58.58;22.35;;;;;;;;;;4970234;28;20045;-61
2023/02/09 06:02:06;;;;;;;51.90;20.75;;;;;;;;;;4970573;28;20027;-61
2023/02/09 06:04:31;;;;;;;57.63;21.15;;;;;;;;;;4974426;28;20088;-61
2023/02/09 06:06:57;;;;;;;45.72;19.90;;;;;;;;;;4969824;28;20143;-61
2023/02/09 06:09:23;;;;;;;60.80;24.10;;;;;;;;;;4970236;28;20447;-61
2023/02/09 06:11:48;;;;;;;65.43;25.98;;;;;;;;;;4969997;28;20026;-61
2023/02/09 06:14:14;;;;;;;55.65;22.95;;;;;;;;;;4968869;28;20031;-61
2023/02/09 06:16:39;;;;;;;62.67;24.58;;;;;;;;;;4971119;28;20018;-61
2023/02/09 06:19:05;;;;;;;58.50;25.90;;;;;;;;;;4971558;28;20559;-60
2023/02/09 06:21:31;;;;;;;59.53;23.48;;;;;;;;;;4973753;28;20023;-61
2023/02/09 06:23:56;;;;;;;55.35;20.88;;;;;;;;;;4970459;28;20540;-61
2023/02/09 06:26:22;;;;;;;51.60;21.35;;;;;;;;;;4973085;28;20212;-61
2023/02/09 06:28:47;;;;;;;50.22;20.45;;;;;;;;;;4971206;28;20022;-61
2023/02/09 06:31:13;;;;;;;53.67;20.80;;;;;;;;;;4973287;28;20022;-61
2023/02/09 06:33:38;;;;;;;48.55;19.63;;;;;;;;;;4974076;28;20035;-62
2023/02/09 06:36:05;;;;;;;58.40;21.45;;;;;;;;;;4982335;28;20014;-62
2023/02/09 06:38:35;;;;;;;54.60;22.45;;;;;;;;;;4976386;28;20428;-61
2023/02/09 06:41:00;;;;;;;;;;;;;;;;;;4975441;28;20468;-62
2023/02/09 06:43:26;;;;;;;50.95;19.83;;;;;;;;;;4973921;28;19956;-62
2023/02/09 06:45:52;;;;;;;53.28;21.70;;;;;;;;;;4974286;28;20053;-62
2023/02/09 06:48:17;;;;;;;54.90;21.90;;;;;;;;;;4974916;28;20385;-62
2023/02/09 06:50:42;;;;;;;61.05;21.50;;;;;;;;;;4976552;28;20037;-62
2023/02/09 06:53:08;;;;;;;59.17;23.25;;;;;;;;;;4973448;28;20407;-62
2023/02/09 06:55:34;;;;;;;49.13;20.60;;;;;;;;;;4973181;28;20031;-62
2023/02/09 06:57:59;;;;;;;50.20;21.25;;;;;;;;;;4977592;28;20046;-62
2023/02/09 07:00:25;;;;;;;54.55;21.48;;;;;;;;;;4971354;28;20039;-62
2023/02/09 07:02:52;;;;;;;61.00;24.23;;;;;;;;;;4974443;28;20031;-62
2023/02/09 07:05:18;;;;;;;58.28;23.60;;;;;;;;;;4973752;28;20684;-62
2023/02/09 07:07:45;;;;;;;57.00;22.27;;;;;;;;;;4974971;28;20027;-62
2023/02/09 07:10:13;;;;;;;58.60;21.67;;;;;;;;;;4978188;28;20059;-62
2023/02/09 07:12:42;;;;;;;51.58;19.90;;;;;;;;;;4973982;28;20034;-62
2023/02/09 07:15:09;;;;;;;62.70;22.75;;;;;;;;;;4980446;28;20026;-62
2023/02/09 07:17:35;;;;;;;49.55;21.33;;;;;;;;;;4978326;28;20089;-62
2023/02/09 07:20:00;;;;;;;56.30;21.08;;;;;;;;;;4976523;28;20022;-62
2023/02/09 07:22:26;;;;;;;53.92;22.40;;;;;;;;;;4982057;28;20600;-62
2023/02/09 07:24:51;;;;;;;53.05;20.50;;;;;;;;;;4973653;28;20027;-62
2023/02/09 07:27:18;;;;;;;58.63;22.40;;;;;;;;;;4982153;28;20049;-62
2023/02/09 07:29:43;;;;;;;59.05;22.05;;;;;;;;;;4982977;28;20014;-62
2023/02/09 07:32:09;;;;;;;60.15;23.17;;;;;;;;;;4972527;28;20022;-62
2023/02/09 07:34:35;;;;;;;58.45;23.23;;;;;;;;;;4972960;28;20030;-62
2023/02/09 07:37:01;;;;;;;63.60;23.70;;;;;;;;;;4968556;28;20027;-62
2023/02/09 07:39:26;;;;;;;63.08;23.08;;;;;;;;;;4973824;28;20022;-62
2023/02/09 07:41:52;;;;;;;61.38;23.77;;;;;;;;;;4973416;28;20022;-62
2023/02/09 07:44:17;;;;;;;63.63;22.90;;;;;;;;;;4972582;28;20030;-62
2023/02/09 07:46:43;;;;;;;64.78;26.02;;;;;;;;;;4980665;28;20022;-62
2023/02/09 07:49:09;;;;;;;60.72;22.23;;;;;;;;;;4973891;28;20488;-62
2023/02/09 07:51:34;;;;;;;67.38;26.02;;;;;;;;;;4973701;28;20043;-62
2023/02/09 07:54:00;;;;;;;62.67;24.00;;;;;;;;;;4972754;28;20027;-62
2023/02/09 07:56:25;;;;;;;63.90;23.30;;;;;;;;;;4973514;28;20031;-62
2023/02/09 07:58:52;;;;;;;64.03;23.15;;;;;;;;;;4973544;28;20027;-62
2023/02/09 08:01:18;;;;;;;65.80;23.23;;;;;;;;;;4978325;28;20381;-62
2023/02/09 08:03:46;;;;;;;61.30;22.40;;;;;;;;;;4967151;28;20035;-62
2023/02/09 08:06:11;;;;;;;55.58;21.45;;;;;;;;;;4970152;28;20019;-61
2023/02/09 08:08:37;;;;;;;63.15;24.42;;;;;;;;;;4975806;28;20041;-60
2023/02/09 08:11:04;;;;;;;66.22;23.05;;;;;;;;;;4969403;28;20548;-61
2023/02/09 08:13:36;;;;;;;64.78;23.75;;;;;;;;;;4971652;28;20026;-61
2023/02/09 08:16:06;;;;;;;61.10;23.58;;;;;;;;;;4971471;28;20033;-61
2023/02/09 08:18:43;;;;;;;61.15;23.10;;;;;;;;;;4973167;28;20022;-61
2023/02/09 08:21:12;;;;;;;76.85;30.95;;;;;;;;;;4970650;28;20519;-61
2023/02/09 08:23:39;;;;;;;70.13;31.02;;;;;;;;;;4972707;28;20541;-60
2023/02/09 08:26:10;;;;;;;73.18;30.15;;;;;;;;;;4979387;28;20034;-60
2023/02/09 08:28:37;;;;;;;96.20;33.25;;;;;;;;;;4974840;28;20500;-60
2023/02/09 08:31:03;;;;;;;82.88;33.22;;;;;;;;;;4972912;28;20416;-61
2023/02/09 08:33:28;;;;;;;82.72;31.60;;;;;;;;;;4980441;28;20045;-61
2023/02/09 08:35:54;;;;;;;75.50;32.22;;;;;;;;;;4972996;28;20019;-61
2023/02/09 08:38:19;;;;;;;79.45;30.17;;;;;;;;;;4972380;28;20077;-61
2023/02/09 08:40:45;;;;;;;73.05;30.42;;;;;;;;;;4971540;28;20113;-61
2023/02/09 08:43:12;;;;;;;72.68;30.23;;;;;;;;;;4968448;28;20026;-61
2023/02/09 08:45:39;;;;;;;82.20;30.13;;;;;;;;;;4974948;28;20111;-61
2023/02/09 08:48:05;;;;;;;78.45;30.05;;;;;;;;;;4982511;28;20046;-61
2023/02/09 08:50:32;;;;;;;79.10;31.17;;;;;;;;;;4969033;28;20035;-61
2023/02/09 08:52:58;;;;;;;75.53;29.92;;;;;;;;;;4971469;28;20038;-61
2023/02/09 08:55:23;;;;;;;80.88;32.15;;;;;;;;;;4977399;28;20035;-63
2023/02/09 08:57:49;;;;;;;75.63;30.58;;;;;;;;;;4972570;28;20053;-62
2023/02/09 09:00:15;;;;;;;71.80;28.38;;;;;;;;;;4972622;28;20039;-62
2023/02/09 09:02:40;;;;;;;71.57;28.58;;;;;;;;;;4973193;28;20034;-62
2023/02/09 09:05:06;;;;;;;72.60;28.40;;;;;;;;;;4975972;28;20023;-62
2023/02/09 09:07:31;;;;;;;73.82;28.42;;;;;;;;;;4974124;28;20625;-61
2023/02/09 09:09:57;;;;;;;73.53;29.15;;;;;;;;;;4973852;28;20575;-61
2023/02/09 09:12:22;;;;;;;78.72;29.58;;;;;;;;;;4979805;28;20109;-61
2023/02/09 09:14:48;;;;;;;79.85;30.42;;;;;;;;;;4969509;28;20476;-61
2023/02/09 09:17:13;;;;;;;82.43;30.88;;;;;;;;;;4975170;28;20487;-61
2023/02/09 09:19:38;;;;;;;76.90;29.52;;;;;;;;;;4972176;28;20022;-61
2023/02/09 09:22:04;;;;;;;76.40;29.55;;;;;;;;;;4974021;28;20192;-63
2023/02/09 09:24:30;;;;;;;72.43;28.40;;;;;;;;;;4970860;28;20031;-63
2023/02/09 09:26:56;;;;;;;72.05;29.40;;;;;;;;;;4971843;28;20105;-61
2023/02/09 09:29:21;;;;;;;72.65;28.63;;;;;;;;;;4972638;28;20031;-62
2023/02/09 09:31:47;;;;;;;62.50;28.13;;;;;;;;;;4980468;28;20085;-62
2023/02/09 09:34:12;;;;;;;71.03;28.35;;;;;;;;;;4970870;28;20093;-62
2023/02/09 09:36:38;;;;;;;64.97;27.83;;;;;;;;;;4971641;28;20026;-62
2023/02/09 09:39:03;;;;;;;70.82;28.83;;;;;;;;;;4971999;28;20084;-62
2023/02/09 09:41:37;;;;;;;75.82;29.08;;;;;;;;;;4974264;28;20038;-62
2023/02/09 09:44:12;;;;;;;68.88;27.75;;;;;;;;;;4970251;28;20045;-62
2023/02/09 09:46:42;;;;;;;69.30;28.42;;;;;;;;;;4974519;28;20018;-62
2023/02/09 09:49:18;;;;;;;64.85;27.15;;;;;;;;;;4974588;28;20034;-62
2023/02/09 09:51:46;;;;;;;71.10;28.65;;;;;;;;;;4971562;28;20089;-62
2023/02/09 09:54:18;;;;;;;72.10;26.75;;;;;;;;;;4970592;28;20023;-62
2023/02/09 09:56:44;;;;;;;70.72;29.45;;;;;;;;;;4971580;28;20029;-62
2023/02/09 09:59:18;;;;;;;67.10;26.85;;;;;;;;;;4976380;28;20026;-62
2023/02/09 10:01:45;;;;;;;67.88;27.65;;;;;;;;;;4965827;28;20424;-62
2023/02/09 10:04:13;;;;;;;63.70;27.70;;;;;;;;;;4970342;28;20465;-63
2023/02/09 10:06:41;;;;;;;70.40;28.35;;;;;;;;;;4969020;28;20031;-62
2023/02/09 10:09:17;;;;;;;68.60;28.77;;;;;;;;;;4971311;28;20025;-63
2023/02/09 10:11:50;;;;;;;72.80;28.02;;;;;;;;;;4966632;28;20395;-63
2023/02/09 10:14:15;;;;;;;73.32;28.98;;;;;;;;;;4972881;28;20037;-63
2023/02/09 10:16:43;;;;;;;75.72;30.02;;;;;;;;;;4971003;28;20011;-63
2023/02/09 10:19:20;;;;;;;74.85;29.08;;;;;;;;;;4971144;28;20029;-63
2023/02/09 10:21:47;;;;;;;72.95;28.33;;;;;;;;;;4963843;28;20504;-63
2023/02/09 10:24:27;;;;;;;66.50;27.38;;;;;;;;;;4970167;28;20041;-63
2023/02/09 10:27:24;;;;;;;66.22;26.30;;;;;;;;;;4953073;28;20085;-63
2023/02/09 10:29:49;;;;;;;65.95;27.33;;;;;;;;;;4962900;28;20089;-63
2023/02/09 10:32:20;;;;;;;70.05;28.25;;;;;;;;;;4970235;28;20035;-63
2023/02/09 10:34:51;;;;;;;69.22;28.15;;;;;;;;;;4967386;28;20027;-63
2023/02/09 10:37:34;;;;;;;73.97;27.55;;;;;;;;;;4967503;28;20089;-63
2023/02/09 10:40:21;;;;;;;68.13;27.02;;;;;;;;;;4970945;28;20085;-63
2023/02/09 10:43:02;;;;;;;63.67;26.55;;;;;;;;;;4973043;28;20072;-63
2023/02/09 10:45:36;;;;;;;59.05;26.00;;;;;;;;;;4969112;28;20035;-63
2023/02/09 10:48:16;;;;;;;61.50;26.45;;;;;;;;;;4971018;28;20027;-64
2023/02/09 10:50:56;;;;;;;63.22;27.55;;;;;;;;;;4969314;28;20127;-63
2023/02/09 10:53:30;;;;;;;61.78;27.52;;;;;;;;;;4969953;28;20085;-62
2023/02/09 10:56:07;;;;;;;61.30;27.63;;;;;;;;;;4970501;28;20035;-64
2023/02/09 10:58:36;;;;;;;67.80;28.98;;;;;;;;;;4969559;28;20034;-64
2023/02/09 11:01:13;;;;;;;;;;;;;;;;;;4971226;28;20591;-64
2023/02/09 11:03:57;;;;;;;64.40;27.13;;;;;;;;;;4969685;28;19918;-63
2023/02/09 11:06:22;;;;;;;58.58;27.83;;;;;;;;;;4968574;28;20027;-64
2023/02/09 11:08:55;;;;;;;61.92;26.75;;;;;;;;;;4970649;28;20337;-64
2023/02/09 11:11:28;;;;;;;59.92;26.50;;;;;;;;;;4970518;28;20038;-64
2023/02/09 11:13:54;;;;;;;54.08;24.52;;;;;;;;;;4972221;28;20019;-64
2023/02/09 11:16:57;;;;;;;50.47;23.20;;;;;;;;;;4971195;28;20018;-63
2023/02/09 11:19:25;;;;;;;52.80;23.02;;;;;;;;;;4974153;28;20029;-64
2023/02/09 11:22:02;;;;;;;49.25;23.30;;;;;;;;;;4974102;28;20097;-64
2023/02/09 11:24:52;;;;;;;49.50;22.90;;;;;;;;;;4971204;28;20030;-64
2023/02/09 11:27:23;;;;;;;48.00;23.60;;;;;;;;;;4974005;28;20038;-64
2023/02/09 11:30:02;;;;;;;51.08;23.35;;;;;;;;;;4971106;28;20031;-64
2023/02/09 11:33:19;;;;;;;52.10;24.33;;;;;;;;;;4971803;28;20492;-64
2023/02/09 11:36:09;;;;;;;52.55;25.15;;;;;;;;;;4932495;28;20051;-64
2023/02/09 11:38:54;;;;;;;53.20;22.15;;;;;;;;;;4971177;28;20038;-64
2023/02/09 11:44:39;;;;;;;52.05;24.75;;;;;;;;;;4969442;28;20045;-64
2023/02/09 11:47:08;;;;;;;53.13;23.70;;;;;;;;;;4975908;28;20038;-65
2023/02/09 11:49:55;;;;;;;54.58;26.15;;;;;;;;;;4973507;28;20074;-65
2023/02/09 11:52:39;;;;;;;55.33;25.15;;;;;;;;;;4973333;28;20377;-65
2023/02/09 11:55:25;;;;;;;50.70;23.40;;;;;;;;;;4972884;28;20429;-65
2023/02/09 11:57:57;;;;;;;53.70;23.88;;;;;;;;;;4973440;28;20022;-65
2023/02/09 12:00:26;;;;;;;48.47;22.38;;;;;;;;;;4967081;28;20113;-66
2023/02/09 12:03:03;;;;;;;53.72;23.98;;;;;;;;;;4976581;28;20019;-65
2023/02/09 12:05:29;;;;;;;62.33;28.00;;;;;;;;;;4972843;28;20034;-65
2023/02/09 12:08:19;;;;;;;55.97;26.67;;;;;;;;;;4973285;28;20033;-66
2023/02/09 12:10:53;;;;;;;53.85;25.17;;;;;;;;;;4973206;28;20026;-65
2023/02/09 12:13:43;;;;;;;41.83;22.23;;;;;;;;;;4974974;28;20045;-65
2023/02/09 12:16:16;;;;;;;45.33;21.83;;;;;;;;;;4955989;28;20030;-66
2023/02/09 12:18:43;;;;;;;48.78;22.60;;;;;;;;;;4973269;28;20638;-66
2023/02/09 12:21:09;;;;;;;49.55;22.60;;;;;;;;;;4972937;28;20523;-65
2023/02/09 12:23:39;;;;;;;44.72;21.67;;;;;;;;;;4972133;28;20026;-65
2023/02/09 12:26:10;;;;;;;45.03;22.45;;;;;;;;;;4973152;28;20026;-64
2023/02/09 12:28:45;;;;;;;43.40;22.08;;;;;;;;;;4973429;28;20037;-64
2023/02/09 12:31:19;;;;;;;43.78;22.20;;;;;;;;;;4973154;28;20076;-65
2023/02/09 12:33:44;;;;;;;43.95;22.20;;;;;;;;;;4964415;28;20023;-65
2023/02/09 12:36:11;;;;;;;48.15;24.10;;;;;;;;;;4971292;28;20019;-65
2023/02/09 12:38:52;;;;;;;47.65;23.50;;;;;;;;;;4972861;28;20030;-65
2023/02/09 12:41:21;;;;;;;48.65;22.85;;;;;;;;;;4969688;28;20022;-65
2023/02/09 12:43:48;;;;;;;46.65;23.40;;;;;;;;;;4970246;28;20096;-65
2023/02/09 12:46:28;;;;;;;41.15;20.38;;;;;;;;;;4970904;28;20389;-65
2023/02/09 12:49:00;;;;;;;45.45;22.20;;;;;;;;;;4972124;28;20092;-65
2023/02/09 12:51:52;;;;;;;42.85;22.67;;;;;;;;;;4971708;28;20085;-65
2023/02/09 12:54:30;;;;;;;40.63;21.63;;;;;;;;;;4971570;28;20105;-65
2023/02/09 12:57:15;;;;;;;42.30;21.52;;;;;;;;;;4971476;28;20098;-66
2023/02/09 12:59:51;;;;;;;39.88;20.70;;;;;;;;;;4970623;28;20023;-66
2023/02/09 13:02:28;;;;;;;85.70;24.70;;;;;;;;;;4971032;28;20519;-66
2023/02/09 13:05:04;;;;;;;37.85;20.45;;;;;;;;;;4965367;28;20034;-66
2023/02/09 13:07:32;;;;;;;39.72;20.42;;;;;;;;;;4972026;28;20031;-66
2023/02/09 13:10:24;;;;;;;48.17;22.05;;;;;;;;;;4972173;28;20025;-66
2023/02/09 13:13:05;;;;;;;35.97;19.73;;;;;;;;;;4965162;28;20399;-66
2023/02/09 13:15:53;;;;;;;38.60;19.38;;;;;;;;;;4963894;28;20138;-66
2023/02/09 13:18:19;;;;;;;39.50;20.67;;;;;;;;;;4971453;28;20022;-66
2023/02/09 13:21:02;;;;;;;43.22;20.25;;;;;;;;;;4971915;28;20019;-66
2023/02/09 13:23:33;;;;;;;37.88;19.58;;;;;;;;;;4981333;28;20030;-66
2023/02/09 13:26:08;;;;;;;34.80;19.50;;;;;;;;;;4971829;28;20035;-66
2023/02/09 13:28:33;;;;;;;41.58;19.85;;;;;;;;;;4974194;28;20022;-66
2023/02/09 13:31:00;;;;;;;40.67;19.90;;;;;;;;;;4977997;28;20042;-66
2023/02/09 13:33:48;;;;;;;36.17;19.52;;;;;;;;;;4970987;28;20035;-66
2023/02/09 13:36:32;;;;;;;38.88;20.00;;;;;;;;;;4968062;28;20158;-66
2023/02/09 13:38:57;;;;;;;43.72;19.15;;;;;;;;;;4971477;28;20432;-66
2023/02/09 13:41:27;;;;;;;38.10;19.13;;;;;;;;;;4971748;28;20023;-66
2023/02/09 13:43:52;;;;;;;39.00;19.63;;;;;;;;;;4970752;28;20589;-67
2023/02/09 13:46:26;;;;;;;37.55;19.67;;;;;;;;;;4971625;28;20158;-67
2023/02/09 13:48:51;;;;;;;36.60;19.52;;;;;;;;;;4976265;28;20077;-66
2023/02/09 13:51:19;;;;;;;42.60;19.75;;;;;;;;;;4972266;28;20485;-67
2023/02/09 13:54:01;;;;;;;38.80;19.45;;;;;;;;;;4970589;28;20019;-67
2023/02/09 13:56:28;;;;;;;41.22;22.02;;;;;;;;;;4971663;28;20039;-66
2023/02/09 13:58:54;;;;;;;41.10;21.23;;;;;;;;;;4971542;28;20037;-66
2023/02/09 14:01:34;;;;;;;35.95;19.80;;;;;;;;;;4971226;28;20068;-66
2023/02/09 14:04:13;;;;;;;42.25;20.08;;;;;;;;;;4970536;28;20451;-66
2023/02/09 14:06:43;;;;;;;39.40;22.13;;;;;;;;;;4968577;28;20030;-66
2023/02/09 14:09:14;;;;;;;;;;;;;;;;;;4962911;28;20076;-66
2023/02/09 14:11:45;;;;;;;39.53;20.50;;;;;;;;;;4968788;28;19933;-67
2023/02/09 14:17:37;;;;;;;39.70;20.38;;;;;;;;;;4970945;28;20038;-67
2023/02/09 14:20:20;;;;;;;39.08;20.25;;;;;;;;;;4965912;28;20026;-67
2023/02/09 14:22:54;;;;;;;36.00;18.75;;;;;;;;;;4970157;28;20062;-67
2023/02/09 14:25:24;;;;;;;37.67;18.63;;;;;;;;;;4970367;28;20109;-67
2023/02/09 14:27:50;;;;;;;36.53;18.45;;;;;;;;;;4971118;28;20026;-67
2023/02/09 14:30:25;;;;;;;38.17;19.42;;;;;;;;;;4969079;28;20062;-68
2023/02/09 14:32:54;;;;;;;34.45;18.35;;;;;;;;;;4968949;28;20077;-67
2023/02/09 14:35:24;;;;;;;33.42;17.40;;;;;;;;;;4970211;28;20031;-68
2023/02/09 14:37:55;;;;;;;37.15;18.75;;;;;;;;;;4971190;28;20019;-67
2023/02/09 14:40:23;;;;;;;38.05;19.27;;;;;;;;;;4977800;28;20676;-68
2023/02/09 14:43:10;;;;;;;31.95;18.15;;;;;;;;;;4970792;28;20597;-67
2023/02/09 14:45:38;;;;;;;35.28;17.80;;;;;;;;;;4970290;28;20037;-68
2023/02/09 14:48:18;;;;;;;38.53;18.33;;;;;;;;;;4976676;28;20034;-67
2023/02/09 14:50:44;;;;;;;38.33;19.25;;;;;;;;;;4970978;28;20050;-68